Time;durP1;ratioP1;P1;durP2;ratioP2;P2;SDS_P1;SDS_P2;PMS_P1;PMS_P2;Temp;Humidity;BMP_temperature;BMP_pressure;BME280_temperature;BME280_humidity;BME280_pressure;Samples;Min_cycle;Max_cycle;Signal;HPM_P1;HPM_P2
2023/01/19 00:00:44;;;;;;;25.03;15.63;;;;;;;5.36;100.00;95121.81;5020909;28;20084;-46
2023/01/19 00:03:14;;;;;;;26.38;17.13;;;;;;;5.39;100.00;95128.56;5030606;28;20081;-49
2023/01/19 00:05:43;;;;;;;24.20;15.52;;;;;;;5.16;100.00;95128.97;5027869;28;20085;-44
2023/01/19 00:08:14;;;;;;;21.42;13.00;;;;;;;5.73;100.00;95128.78;5028085;28;20089;-47
2023/01/19 00:10:44;;;;;;;27.55;15.40;;;;;;;5.09;100.00;95138.31;5029033;28;20073;-45
2023/01/19 00:13:13;;;;;;;24.15;15.68;;;;;;;5.15;100.00;95140.34;5025062;28;20077;-47
2023/01/19 00:15:44;;;;;;;21.00;12.77;;;;;;;5.31;100.00;95152.81;5030700;28;20092;-50
2023/01/19 00:18:12;;;;;;;16.95;10.98;;;;;;;5.46;100.00;95153.16;5025171;28;20084;-51
2023/01/19 00:20:41;;;;;;;21.33;11.70;;;;;;;5.50;100.00;95156.28;5025830;28;20548;-49
2023/01/19 00:23:09;;;;;;;16.98;9.77;;;;;;;5.18;100.00;95166.22;5025453;28;20077;-46
2023/01/19 00:25:41;;;;;;;14.80;8.85;;;;;;;5.29;100.00;95167.00;5030018;28;20450;-49
2023/01/19 00:28:10;;;;;;;9.98;7.25;;;;;;;5.18;100.00;95165.38;5022192;28;20486;-52
2023/01/19 00:30:39;;;;;;;19.08;12.07;;;;;;;4.81;100.00;95178.41;5022793;28;20083;-49
2023/01/19 00:33:09;;;;;;;19.83;10.65;;;;;;;5.52;100.00;95170.88;5017228;28;20091;-47
2023/01/19 00:35:37;;;;;;;12.43;8.63;;;;;;;5.47;100.00;95173.94;5028822;28;20085;-54
2023/01/19 00:38:06;;;;;;;15.23;11.48;;;;;;;5.58;100.00;95172.91;5032031;28;20080;-50
2023/01/19 00:40:34;;;;;;;17.75;11.07;;;;;;;5.26;100.00;95178.53;5025396;28;20078;-47
2023/01/19 00:43:03;;;;;;;18.70;11.48;;;;;;;5.44;100.00;95182.06;5022284;28;20081;-47
2023/01/19 00:45:33;;;;;;;13.80;8.00;;;;;;;5.38;100.00;95182.63;5023004;28;20083;-48
2023/01/19 00:48:01;;;;;;;19.77;12.48;;;;;;;4.91;100.00;95192.28;5022919;28;20096;-46
2023/01/19 00:50:32;;;;;;;17.10;9.95;;;;;;;5.25;100.00;95187.38;5035361;28;20084;-50
2023/01/19 00:53:00;;;;;;;12.77;8.00;;;;;;;5.20;100.00;95192.22;5023733;28;20074;-52
2023/01/19 00:55:30;;;;;;;10.75;7.28;;;;;;;5.26;100.00;95193.41;5028380;28;20080;-46
2023/01/19 00:57:58;;;;;;;13.90;8.88;;;;;;;5.36;100.00;95188.97;5021991;28;20089;-47
2023/01/19 01:00:26;;;;;;;22.23;12.20;;;;;;;5.40;100.00;95192.94;5027806;28;20088;-47
2023/01/19 01:02:55;;;;;;;24.48;12.65;;;;;;;5.16;100.00;95207.34;5024754;28;20088;-47
2023/01/19 01:05:23;;;;;;;10.90;8.05;;;;;;;5.08;100.00;95206.41;5021281;28;20084;-49
2023/01/19 01:07:53;;;;;;;13.23;8.68;;;;;;;5.08;100.00;95201.16;5028826;28;20088;-48
2023/01/19 01:10:23;;;;;;;11.07;6.60;;;;;;;5.43;100.00;95197.88;5023814;28;20080;-49
2023/01/19 01:12:52;;;;;;;14.02;8.85;;;;;;;5.21;100.00;95202.50;5026996;28;20091;-46
2023/01/19 01:15:40;;;;;;;14.80;7.38;;;;;;;4.98;100.00;95211.66;5030881;28;20540;-51
2023/01/19 01:18:08;;;;;;;11.43;7.53;;;;;;;5.04;100.00;95216.31;5025201;28;20460;-43
2023/01/19 01:20:37;;;;;;;16.60;10.18;;;;;;;5.32;100.00;95205.91;5029613;28;20457;-50
2023/01/19 01:23:06;;;;;;;13.68;7.90;;;;;;;5.26;100.00;95215.13;5026377;28;20088;-44
2023/01/19 01:25:36;;;;;;;12.37;9.27;;;;;;;5.15;100.00;95220.53;5019835;28;20073;-43
2023/01/19 01:28:07;;;;;;;13.50;8.98;;;;;;;5.36;100.00;95220.34;5031370;28;20083;-44
2023/01/19 01:30:38;;;;;;;11.05;8.70;;;;;;;5.51;100.00;95218.09;5026497;28;20080;-44
2023/01/19 01:33:07;;;;;;;7.90;5.63;;;;;;;5.59;100.00;95224.25;5025435;28;20081;-45
2023/01/19 01:35:36;;;;;;;9.75;6.57;;;;;;;5.37;100.00;95227.22;5023066;28;20077;-49
2023/01/19 01:38:06;;;;;;;9.38;6.72;;;;;;;5.27;100.00;95223.81;5031408;28;20085;-47
2023/01/19 01:40:34;;;;;;;;;;;;;;;5.30;100.00;95237.44;5028680;28;20073;-46
2023/01/19 01:43:02;;;;;;;18.17;8.27;;;;;;;5.37;100.00;95229.84;5027978;28;19971;-46
2023/01/19 01:45:33;;;;;;;15.25;9.80;;;;;;;5.47;100.00;95233.22;5029430;28;20081;-51
2023/01/19 01:48:04;;;;;;;16.65;9.55;;;;;;;5.28;100.00;95239.34;5024462;28;21001;-48
2023/01/19 01:50:34;;;;;;;11.20;7.47;;;;;;;5.72;100.00;95231.75;5028674;28;20084;-45
2023/01/19 01:53:07;;;;;;;5.93;4.90;;;;;;;5.69;100.00;95229.44;5028619;28;20077;-48
2023/01/19 01:55:38;;;;;;;12.55;8.60;;;;;;;5.63;100.00;95236.06;5031735;28;20077;-46
2023/01/19 01:58:06;;;;;;;;;;;;;;;5.83;100.00;95236.78;5027347;28;20069;-50
2023/01/19 02:03:16;;;;;;;16.70;9.90;;;;;;;5.67;100.00;95247.88;5026571;28;20095;-49
2023/01/19 02:05:45;;;;;;;21.70;12.20;;;;;;;6.18;100.00;95249.16;5027652;28;20089;-50
2023/01/19 02:13:50;;;;;;;22.83;12.45;;;;;;;5.66;100.00;95242.78;5028678;28;20085;-46
2023/01/19 02:16:18;;;;;;;17.60;10.60;;;;;;;5.24;100.00;95257.09;5025924;28;21427;-49
2023/01/19 02:18:47;;;;;;;17.75;9.43;;;;;;;5.79;100.00;95245.09;5030978;28;20095;-51
2023/01/19 02:21:19;;;;;;;18.35;12.32;;;;;;;5.19;100.00;95255.88;5028382;28;20072;-48
2023/01/19 02:23:51;;;;;;;18.63;12.05;;;;;;;5.19;100.00;95248.03;5028364;28;20080;-52
2023/01/19 02:26:21;;;;;;;10.57;7.28;;;;;;;5.16;100.00;95262.22;5026833;28;20093;-48
2023/01/19 02:28:50;;;;;;;;;;;;;;;5.17;100.00;95258.63;5030984;28;20069;-46
2023/01/19 02:31:19;;;;;;;10.90;7.57;;;;;;;5.04;100.00;95257.28;5028725;28;20017;-48
2023/01/19 02:33:47;;;;;;;18.38;10.50;;;;;;;5.13;100.00;95259.06;5021766;28;20100;-49
2023/01/19 02:36:16;;;;;;;14.93;10.80;;;;;;;5.34;100.00;95258.88;5024686;28;20077;-49
2023/01/19 02:38:45;;;;;;;14.52;10.35;;;;;;;5.36;100.00;95262.97;5029639;28;20471;-49
2023/01/19 02:41:20;;;;;;;16.98;10.30;;;;;;;5.25;100.00;95271.00;5027757;28;20077;-47
2023/01/19 02:43:48;;;;;;;21.67;10.48;;;;;;;5.15;100.00;95270.19;5026791;28;20092;-45
2023/01/19 02:46:17;;;;;;;20.42;9.10;;;;;;;5.23;100.00;95258.06;5025432;28;20668;-48
2023/01/19 02:48:45;;;;;;;16.77;11.63;;;;;;;5.26;100.00;95266.59;5026866;28;20089;-48
2023/01/19 02:51:15;;;;;;;17.17;9.18;;;;;;;5.22;100.00;95273.88;5025717;28;20061;-46
2023/01/19 02:54:05;;;;;;;17.35;9.88;;;;;;;5.14;100.00;95274.59;5025862;28;20073;-49
2023/01/19 02:56:45;;;;;;;14.30;8.25;;;;;;;5.26;100.00;95271.81;5023836;28;20081;-51
2023/01/19 02:59:26;;;;;;;20.33;11.10;;;;;;;5.29;100.00;95277.59;5026057;28;20100;-48
2023/01/19 03:02:04;;;;;;;21.90;13.65;;;;;;;5.04;100.00;95281.63;5023716;28;20081;-48
2023/01/19 03:04:40;;;;;;;18.35;11.60;;;;;;;5.17;100.00;95282.16;5029857;28;20533;-46
2023/01/19 03:07:11;;;;;;;23.20;12.88;;;;;;;5.29;100.00;95282.00;5024328;28;20081;-44
2023/01/19 03:09:43;;;;;;;21.92;12.02;;;;;;;5.17;100.00;95279.53;5026177;28;20080;-46
2023/01/19 03:12:22;;;;;;;19.52;12.88;;;;;;;5.00;100.00;95281.06;5025037;28;20092;-45
2023/01/19 03:14:53;;;;;;;15.88;9.63;;;;;;;5.37;100.00;95276.91;5025655;28;20046;-50
2023/01/19 03:17:22;;;;;;;18.52;12.27;;;;;;;5.37;100.00;95279.50;5023972;28;20072;-47
2023/01/19 03:19:52;;;;;;;17.10;11.32;;;;;;;5.20;100.00;95268.81;5030093;28;20104;-47
2023/01/19 03:22:22;;;;;;;19.20;11.83;;;;;;;4.93;100.00;95272.16;5024046;28;20072;-45
2023/01/19 03:24:53;;;;;;;19.77;11.38;;;;;;;4.83;100.00;95270.50;5025406;28;20084;-44
2023/01/19 03:27:24;;;;;;;;;;;;;;;5.25;100.00;95263.16;5026115;28;20083;-48
2023/01/19 03:29:55;;;;;;;15.35;9.57;;;;;;;4.39;100.00;95263.09;5026011;28;20019;-49
2023/01/19 03:32:29;;;;;;;15.43;10.05;;;;;;;5.16;100.00;95264.84;5022130;28;20159;-45
2023/01/19 03:34:59;;;;;;;14.65;9.10;;;;;;;4.98;100.00;95267.31;5016129;28;20077;-51
2023/01/19 03:37:30;;;;;;;17.13;9.40;;;;;;;4.90;100.00;95267.19;5027480;28;20573;-45
2023/01/19 03:39:58;;;;;;;14.80;9.95;;;;;;;4.79;100.00;95264.75;5024576;28;20065;-46
2023/01/19 03:42:28;;;;;;;7.30;5.57;;;;;;;4.92;100.00;95274.88;5027318;28;20081;-50
2023/01/19 03:44:58;;;;;;;16.23;10.65;;;;;;;4.82;100.00;95274.91;5024198;28;20076;-50
2023/01/19 03:47:27;;;;;;;18.23;11.43;;;;;;;4.62;100.00;95271.47;5026763;28;20084;-51
2023/01/19 03:49:56;;;;;;;17.27;10.63;;;;;;;4.78;100.00;95283.16;5025612;28;20091;-45
2023/01/19 03:52:29;;;;;;;14.07;9.98;;;;;;;4.78;100.00;95272.69;5026865;28;20073;-48
2023/01/19 03:54:57;;;;;;;19.67;12.10;;;;;;;4.87;100.00;95277.94;5028130;28;20152;-45
2023/01/19 03:57:25;;;;;;;19.58;12.23;;;;;;;4.88;100.00;95278.75;5017803;28;20058;-48
2023/01/19 03:59:55;;;;;;;20.98;12.52;;;;;;;5.06;100.00;95278.84;5023282;28;20078;-49
2023/01/19 04:02:24;;;;;;;19.88;13.80;;;;;;;5.33;100.00;95276.31;5025971;28;20085;-51
2023/01/19 04:04:52;;;;;;;17.83;11.38;;;;;;;5.08;100.00;95283.00;5028933;28;20089;-46
2023/01/19 04:07:21;;;;;;;18.05;10.38;;;;;;;4.80;100.00;95286.47;5023116;28;20461;-50
2023/01/19 04:09:49;;;;;;;17.48;12.20;;;;;;;4.74;100.00;95293.03;5025491;28;20581;-47
2023/01/19 04:12:17;;;;;;;20.48;12.07;;;;;;;4.98;100.00;95285.59;5029575;28;20539;-48
2023/01/19 04:14:46;;;;;;;18.95;12.05;;;;;;;4.49;100.00;95284.78;5028461;28;20513;-47
2023/01/19 04:17:16;;;;;;;23.65;13.38;;;;;;;4.97;100.00;95283.97;5027761;28;20072;-51
2023/01/19 04:19:44;;;;;;;21.93;13.03;;;;;;;5.08;100.00;95280.38;5024568;28;20080;-49
2023/01/19 04:22:12;;;;;;;16.55;10.70;;;;;;;5.21;100.00;95280.91;5024229;28;20535;-47
2023/01/19 04:24:41;;;;;;;17.08;11.52;;;;;;;5.17;100.00;95282.16;5024379;28;20088;-44
2023/01/19 04:27:09;;;;;;;19.52;11.55;;;;;;;4.73;100.00;95289.63;5022940;28;20073;-46
2023/01/19 04:29:37;;;;;;;20.17;12.80;;;;;;;4.28;100.00;95284.09;5030233;28;20084;-52
2023/01/19 04:32:06;;;;;;;22.83;13.73;;;;;;;4.90;100.00;95282.88;5029969;28;20066;-45
2023/01/19 04:34:35;;;;;;;19.92;13.25;;;;;;;4.62;100.00;95279.31;5020078;28;20049;-51
2023/01/19 04:37:04;;;;;;;18.20;11.67;;;;;;;4.76;100.00;95286.72;5026578;28;20092;-46
2023/01/19 04:39:32;;;;;;;17.15;11.35;;;;;;;4.56;100.00;95285.06;5024884;28;20971;-49
2023/01/19 04:42:00;;;;;;;18.92;12.60;;;;;;;4.42;100.00;95281.09;5023888;28;20513;-50
2023/01/19 04:44:29;;;;;;;22.30;14.57;;;;;;;4.27;100.00;95280.66;5024066;28;20088;-46
2023/01/19 04:46:57;;;;;;;21.65;13.50;;;;;;;4.24;100.00;95282.72;5029444;28;20087;-48
2023/01/19 04:49:25;;;;;;;20.40;12.73;;;;;;;4.61;100.00;95282.03;5024089;28;20087;-43
2023/01/19 04:51:55;;;;;;;21.35;13.65;;;;;;;4.00;100.00;95286.50;5026498;28;20089;-46
2023/01/19 04:54:24;;;;;;;28.70;13.63;;;;;;;3.77;100.00;95287.66;5025658;28;20092;-51
2023/01/19 04:56:52;;;;;;;20.23;13.70;;;;;;;4.11;100.00;95288.19;5024413;28;20899;-47
2023/01/19 04:59:20;;;;;;;23.17;13.48;;;;;;;4.15;100.00;95301.78;5033581;28;20081;-43
2023/01/19 05:01:49;;;;;;;19.55;13.82;;;;;;;3.97;100.00;95305.03;5024024;28;20088;-48
2023/01/19 05:04:17;;;;;;;26.38;14.32;;;;;;;4.53;100.00;95295.78;5026814;28;20065;-52
2023/01/19 05:06:45;;;;;;;21.63;13.68;;;;;;;4.50;100.00;95298.66;5028171;28;20077;-47
2023/01/19 05:09:15;;;;;;;23.05;14.23;;;;;;;4.42;100.00;95306.38;5023839;28;20092;-46
2023/01/19 05:11:43;;;;;;;25.77;14.95;;;;;;;4.59;100.00;95297.03;5024771;28;20103;-50
2023/01/19 05:14:12;;;;;;;21.92;14.27;;;;;;;4.52;100.00;95301.97;5020967;28;20615;-49
2023/01/19 05:16:40;;;;;;;20.67;14.45;;;;;;;4.39;100.00;95304.84;5024290;28;20068;-46
2023/01/19 05:19:09;;;;;;;22.52;14.10;;;;;;;4.50;100.00;95299.50;5023898;28;20084;-49
2023/01/19 05:21:37;;;;;;;22.45;14.85;;;;;;;4.26;100.00;95304.25;5022288;28;20084;-50
2023/01/19 05:24:06;;;;;;;26.92;15.63;;;;;;;4.53;100.00;95307.06;5026454;28;20088;-50
2023/01/19 05:26:36;;;;;;;23.45;14.90;;;;;;;4.51;100.00;95310.78;5026879;28;20083;-47
2023/01/19 05:29:04;;;;;;;24.90;16.17;;;;;;;4.35;100.00;95308.69;5024441;28;20525;-51
2023/01/19 05:31:33;;;;;;;24.48;15.32;;;;;;;4.22;100.00;95310.72;5028157;28;20099;-44
2023/01/19 05:34:01;;;;;;;23.77;14.25;;;;;;;4.62;100.00;95317.66;5022627;28;20089;-47
2023/01/19 05:36:29;;;;;;;23.52;14.52;;;;;;;4.61;100.00;95316.84;5025250;28;20553;-50
2023/01/19 05:38:59;;;;;;;26.30;15.23;;;;;;;4.80;100.00;95318.63;5021722;28;20084;-50
2023/01/19 05:41:27;;;;;;;23.60;15.20;;;;;;;4.88;100.00;95323.97;5020655;28;20100;-46
2023/01/19 05:43:57;;;;;;;21.92;14.75;;;;;;;4.58;100.00;95324.13;5028773;28;20080;-49
2023/01/19 05:46:25;;;;;;;21.27;14.50;;;;;;;5.28;100.00;95328.22;5023241;28;20092;-49
2023/01/19 05:48:54;;;;;;;23.48;14.48;;;;;;;4.62;100.00;95333.31;5024182;28;21060;-47
2023/01/19 05:51:22;;;;;;;25.15;14.85;;;;;;;4.34;100.00;95333.13;5025162;28;20095;-50
2023/01/19 05:53:50;;;;;;;24.90;15.00;;;;;;;4.84;100.00;95338.28;5024349;28;20073;-46
2023/01/19 05:56:18;;;;;;;26.90;15.50;;;;;;;5.52;100.00;95334.78;5023535;28;20548;-48
2023/01/19 05:58:47;;;;;;;23.27;14.18;;;;;;;5.21;100.00;95340.19;5022826;28;20085;-49
2023/01/19 06:01:17;;;;;;;23.70;14.90;;;;;;;5.28;100.00;95340.47;5023745;28;20469;-50
2023/01/19 06:03:46;;;;;;;22.60;15.40;;;;;;;4.83;100.00;95344.47;5022610;28;20080;-52
2023/01/19 06:06:14;;;;;;;24.95;13.77;;;;;;;5.38;100.00;95349.94;5021363;28;20510;-49
2023/01/19 06:08:43;;;;;;;24.05;14.60;;;;;;;4.65;100.00;95352.16;5019239;28;20085;-50
2023/01/19 06:11:12;;;;;;;23.58;14.52;;;;;;;4.68;100.00;95354.50;5022930;28;20088;-49
2023/01/19 06:13:40;;;;;;;21.05;14.63;;;;;;;4.97;100.00;95354.50;5025102;28;20068;-51
2023/01/19 06:16:10;;;;;;;25.48;15.20;;;;;;;4.92;100.00;95369.78;5027198;28;20379;-49
2023/01/19 06:18:40;;;;;;;25.00;14.75;;;;;;;5.17;100.00;95364.97;5029288;28;20072;-50
2023/01/19 06:21:11;;;;;;;24.70;15.90;;;;;;;4.98;100.00;95371.81;5025582;28;20077;-48
2023/01/19 06:23:39;;;;;;;26.23;15.30;;;;;;;5.48;100.00;95368.22;5026619;28;20410;-46
2023/01/19 06:26:07;;;;;;;22.33;14.88;;;;;;;5.10;100.00;95374.31;5034085;28;20066;-49
2023/01/19 06:28:36;;;;;;;22.98;15.35;;;;;;;5.08;100.00;95379.66;5027941;28;20442;-45
2023/01/19 06:31:04;;;;;;;25.33;15.38;;;;;;;5.09;100.00;95383.09;5026124;28;20073;-52
2023/01/19 06:33:33;;;;;;;25.00;16.05;;;;;;;4.70;100.00;95386.50;5026380;28;20073;-50
2023/01/19 06:36:03;;;;;;;24.90;15.68;;;;;;;4.51;100.00;95386.47;5026069;28;20567;-51
2023/01/19 06:38:31;;;;;;;22.10;14.93;;;;;;;4.89;100.00;95384.91;5022817;28;20076;-50
2023/01/19 06:41:01;;;;;;;25.30;15.35;;;;;;;4.80;100.00;95378.69;5027762;28;20072;-46
2023/01/19 06:43:30;;;;;;;23.33;15.20;;;;;;;4.66;100.00;95390.34;5026672;28;20069;-48
2023/01/19 06:45:59;;;;;;;24.70;15.50;;;;;;;4.34;100.00;95380.13;5022465;28;20081;-50
2023/01/19 06:48:28;;;;;;;23.65;13.82;;;;;;;4.37;100.00;95387.69;5025365;28;20099;-50
2023/01/19 06:50:57;;;;;;;23.27;14.98;;;;;;;4.70;100.00;95388.28;5025512;28;20075;-57
2023/01/19 06:53:29;;;;;;;27.25;15.13;;;;;;;4.41;100.00;95389.06;5026997;28;20084;-48
2023/01/19 06:56:00;;;;;;;20.08;13.20;;;;;;;4.17;100.00;95399.84;5024558;28;20085;-49
2023/01/19 06:58:30;;;;;;;21.35;13.63;;;;;;;4.10;100.00;95397.88;5039144;28;20080;-52
2023/01/19 07:01:01;;;;;;;22.75;13.98;;;;;;;4.29;100.00;95397.94;5026317;28;20076;-47
2023/01/19 07:03:29;;;;;;;23.38;14.32;;;;;;;3.96;100.00;95412.09;5026786;28;20548;-47
2023/01/19 07:06:01;;;;;;;21.10;12.95;;;;;;;4.09;100.00;95409.25;5026639;28;20091;-50
2023/01/19 07:08:30;;;;;;;27.25;15.15;;;;;;;4.23;100.00;95403.69;5025586;28;20084;-50
2023/01/19 07:11:00;;;;;;;20.58;14.85;;;;;;;4.11;100.00;95407.34;5025905;28;20084;-47
2023/01/19 07:13:50;;;;;;;25.23;13.90;;;;;;;4.03;100.00;95416.66;5021732;28;20084;-52
2023/01/19 07:16:18;;;;;;;28.17;15.73;;;;;;;4.07;100.00;95414.63;5027412;28;20155;-57
2023/01/19 07:18:48;;;;;;;23.70;14.88;;;;;;;3.96;100.00;95418.13;5025494;28;20081;-55
2023/01/19 07:21:17;;;;;;;22.50;13.90;;;;;;;3.89;100.00;95426.59;5026386;28;20119;-53
2023/01/19 07:23:49;;;;;;;20.70;13.75;;;;;;;3.93;100.00;95421.00;5028891;28;20529;-51
2023/01/19 07:26:20;;;;;;;27.70;15.63;;;;;;;4.11;100.00;95416.00;5026329;28;20045;-49
2023/01/19 07:28:48;;;;;;;28.48;15.23;;;;;;;4.13;100.00;95428.91;5038519;28;20083;-49
2023/01/19 07:31:17;;;;;;;25.73;15.48;;;;;;;4.34;100.00;95421.88;5031970;28;20085;-50
2023/01/19 07:33:46;;;;;;;26.58;13.88;;;;;;;4.51;100.00;95417.81;5021525;28;20103;-48
2023/01/19 07:36:15;;;;;;;23.95;14.73;;;;;;;3.83;100.00;95434.94;5032777;28;20103;-47
2023/01/19 07:38:43;;;;;;;22.35;14.85;;;;;;;4.24;100.00;95418.41;5035146;28;20103;-51
2023/01/19 07:41:13;;;;;;;22.92;14.98;;;;;;;4.23;100.00;95432.38;5025989;28;20072;-49
2023/01/19 07:43:41;;;;;;;22.77;14.63;;;;;;;4.23;100.00;95435.84;5026602;28;20085;-52
2023/01/19 07:46:09;;;;;;;23.50;14.43;;;;;;;4.01;100.00;95441.22;5027631;28;20898;-47
2023/01/19 07:48:38;;;;;;;21.17;14.73;;;;;;;4.19;100.00;95438.81;5021027;28;20084;-47
2023/01/19 07:51:10;;;;;;;20.73;12.63;;;;;;;4.31;100.00;95437.78;5023682;28;20128;-47
2023/01/19 07:53:40;;;;;;;26.35;15.35;;;;;;;4.24;100.00;95442.69;5027812;28;20080;-48
2023/01/19 07:56:09;;;;;;;22.15;14.07;;;;;;;4.60;100.00;95439.66;5026345;28;20079;-48
2023/01/19 07:58:39;;;;;;;22.27;13.98;;;;;;;4.90;100.00;95437.00;5025647;28;20085;-49
2023/01/19 08:01:09;;;;;;;28.02;16.25;;;;;;;4.51;100.00;95443.91;5029285;28;20482;-48
2023/01/19 08:03:37;;;;;;;27.13;15.65;;;;;;;4.85;100.00;95447.03;5029966;28;20080;-50
2023/01/19 08:06:06;;;;;;;24.77;15.10;;;;;;;5.20;100.00;95449.13;5025640;28;20149;-47
2023/01/19 08:08:34;;;;;;;24.92;16.73;;;;;;;5.20;100.00;95437.84;5024023;28;20501;-51
2023/01/19 08:11:03;;;;;;;23.65;15.98;;;;;;;4.59;100.00;95448.47;5020105;28;20100;-53
2023/01/19 08:13:31;;;;;;;23.33;15.52;;;;;;;4.29;100.00;95460.56;5022345;28;20092;-50
2023/01/19 08:16:01;;;;;;;25.23;15.07;;;;;;;4.26;100.00;95463.44;5027610;28;20069;-48
2023/01/19 08:18:29;;;;;;;26.20;15.15;;;;;;;5.29;100.00;95460.53;5025202;28;20077;-47
2023/01/19 08:20:58;;;;;;;23.77;15.50;;;;;;;4.68;100.00;95471.16;5028110;28;20085;-49
2023/01/19 08:23:27;;;;;;;27.27;14.70;;;;;;;4.61;100.00;95472.63;5030008;28;20529;-49
2023/01/19 08:25:56;;;;;;;22.70;15.18;;;;;;;5.25;100.00;95467.00;5030288;28;20678;-48
2023/01/19 08:28:24;;;;;;;20.90;14.32;;;;;;;5.11;100.00;95467.41;5022097;28;20471;-46
2023/01/19 08:30:54;;;;;;;20.23;13.90;;;;;;;4.68;100.00;95471.16;5027593;28;20104;-45
2023/01/19 08:33:24;;;;;;;22.40;14.47;;;;;;;5.27;100.00;95482.56;5025778;28;20084;-51
2023/01/19 08:35:53;;;;;;;23.27;15.32;;;;;;;5.27;97.74;95472.13;5024753;28;20073;-54
2023/01/19 08:38:21;;;;;;;21.58;13.82;;;;;;;4.80;100.00;95484.94;5024070;28;20087;-50
2023/01/19 08:40:50;;;;;;;23.23;13.43;;;;;;;5.57;93.17;95478.97;5026789;28;20072;-46
2023/01/19 08:43:19;;;;;;;24.80;14.75;;;;;;;5.81;91.25;95478.56;5026237;28;20600;-49
2023/01/19 08:45:51;;;;;;;26.15;13.80;;;;;;;5.10;92.68;95481.44;5024580;28;20537;-51
2023/01/19 08:48:22;;;;;;;25.98;15.27;;;;;;;5.11;100.00;95494.34;5026127;28;20084;-47
2023/01/19 08:50:51;;;;;;;;;;;;;;;5.23;97.50;95488.06;5019808;28;20077;-53
2023/01/19 08:53:22;;;;;;;23.85;13.30;;;;;;;4.90;100.00;95488.41;5026060;28;20424;-48
2023/01/19 08:55:54;;;;;;;22.02;12.05;;;;;;;4.77;100.00;95488.63;5020155;28;20072;-52
2023/01/19 08:58:23;;;;;;;24.05;14.20;;;;;;;4.60;100.00;95497.91;5026335;28;20183;-48
2023/01/19 09:00:51;;;;;;;18.75;11.63;;;;;;;4.29;100.00;95494.50;5025643;28;20079;-49
2023/01/19 09:03:21;;;;;;;17.65;10.90;;;;;;;4.45;100.00;95492.25;5026367;28;20491;-48
2023/01/19 09:05:50;;;;;;;17.77;11.13;;;;;;;4.91;100.00;95495.28;5025570;28;20080;-47
2023/01/19 09:08:19;;;;;;;15.73;10.27;;;;;;;4.91;100.00;95496.09;5023647;28;20465;-53
2023/01/19 09:10:49;;;;;;;24.23;14.03;;;;;;;4.69;100.00;95502.38;5022610;28;20057;-53
2023/01/19 09:13:18;;;;;;;18.83;11.57;;;;;;;5.14;100.00;95501.94;5022813;28;20522;-51
2023/01/19 09:15:47;;;;;;;14.60;9.38;;;;;;;4.69;100.00;95497.16;5023201;28;20619;-49
2023/01/19 09:18:17;;;;;;;21.08;9.98;;;;;;;4.94;100.00;95500.22;5020568;28;20580;-46
2023/01/19 09:20:47;;;;;;;12.15;9.10;;;;;;;4.85;100.00;95498.41;5025514;28;20084;-49
2023/01/19 09:23:17;;;;;;;17.92;12.23;;;;;;;4.20;100.00;95503.13;5021618;28;20077;-45
2023/01/19 09:25:47;;;;;;;13.43;8.03;;;;;;;4.66;100.00;95496.59;5019835;28;20065;-50
2023/01/19 09:28:17;;;;;;;19.80;12.13;;;;;;;4.74;100.00;95500.16;5021600;28;20073;-46
2023/01/19 09:30:45;;;;;;;13.73;8.02;;;;;;;5.12;100.00;95509.06;5022031;28;20386;-50
2023/01/19 09:33:15;;;;;;;15.45;10.07;;;;;;;5.24;100.00;95502.78;5026290;28;20065;-45
2023/01/19 09:35:45;;;;;;;16.65;10.30;;;;;;;4.74;100.00;95509.78;5023525;28;20544;-49
2023/01/19 09:38:15;;;;;;;17.48;11.02;;;;;;;4.93;100.00;95502.03;5025537;28;20069;-51
2023/01/19 09:40:47;;;;;;;14.52;8.75;;;;;;;4.64;100.00;95509.75;5026982;28;20069;-48
2023/01/19 09:43:24;;;;;;;18.40;11.63;;;;;;;5.20;100.00;95500.56;5042070;28;20069;-50
2023/01/19 09:45:56;;;;;;;17.38;11.35;;;;;;;5.41;96.94;95511.75;5020737;28;20073;-48
2023/01/19 09:48:42;;;;;;;14.50;9.82;;;;;;;5.43;96.03;95504.56;5030442;28;20103;-48
2023/01/19 09:51:15;;;;;;;12.10;8.35;;;;;;;6.01;89.15;95503.75;5029466;28;20093;-52
2023/01/19 09:53:57;;;;;;;15.68;10.10;;;;;;;6.09;86.88;95500.44;5024519;28;20078;-51
2023/01/19 09:56:27;;;;;;;17.83;10.88;;;;;;;5.67;83.77;95501.56;5029019;28;20789;-48
2023/01/19 09:58:58;;;;;;;17.95;10.85;;;;;;;5.71;85.92;95499.47;5031240;28;20465;-51
2023/01/19 10:01:33;;;;;;;18.55;11.38;;;;;;;5.46;84.88;95495.63;5028293;28;20104;-48
2023/01/19 10:04:27;;;;;;;16.85;11.07;;;;;;;5.53;83.53;95496.72;5023989;28;20069;-51
2023/01/19 10:07:07;;;;;;;17.45;11.25;;;;;;;5.26;89.00;95497.41;5026116;28;20441;-49
2023/01/19 10:09:41;;;;;;;17.08;9.32;;;;;;;5.37;92.49;95492.06;5027361;28;20084;-51
2023/01/19 10:12:15;;;;;;;14.50;10.18;;;;;;;5.57;91.16;95500.72;5029542;28;20065;-52
2023/01/19 10:14:53;;;;;;;16.58;10.50;;;;;;;5.59;84.24;95504.03;5033990;28;20068;-51
2023/01/19 10:17:31;;;;;;;17.45;10.90;;;;;;;5.79;78.39;95502.25;5034209;28;20110;-49
2023/01/19 10:20:02;;;;;;;18.65;11.73;;;;;;;5.92;78.12;95505.44;5027727;28;20128;-49
2023/01/19 10:22:30;;;;;;;12.23;8.70;;;;;;;5.55;81.95;95499.22;5028484;28;20073;-51
2023/01/19 10:25:04;;;;;;;15.80;10.50;;;;;;;5.33;82.11;95501.13;5034471;28;20072;-46
2023/01/19 10:27:34;;;;;;;16.40;9.38;;;;;;;5.73;81.08;95505.41;5029568;28;20080;-47
2023/01/19 10:30:09;;;;;;;14.13;9.25;;;;;;;5.99;80.51;95500.47;5026287;28;20164;-49
2023/01/19 10:32:38;;;;;;;14.57;9.43;;;;;;;5.85;82.09;95500.84;5028122;28;20096;-48
2023/01/19 10:35:20;;;;;;;13.07;6.93;;;;;;;6.09;80.82;95503.06;5030821;28;20081;-51
2023/01/19 10:37:48;;;;;;;16.42;9.77;;;;;;;6.06;75.46;95512.03;5026799;28;20073;-51
2023/01/19 10:40:25;;;;;;;16.02;9.18;;;;;;;6.70;71.34;95504.41;5025692;28;20084;-46
2023/01/19 10:42:53;;;;;;;14.15;10.20;;;;;;;5.89;73.57;95510.91;5035255;28;20061;-51
2023/01/19 10:45:25;;;;;;;13.30;9.55;;;;;;;6.86;71.63;95494.13;5029944;28;20345;-49
2023/01/19 10:47:54;;;;;;;16.58;11.10;;;;;;;6.96;67.87;95487.03;5027220;28;20064;-49
2023/01/19 10:50:25;;;;;;;16.45;10.27;;;;;;;6.53;66.06;95500.75;5033299;28;20088;-52
2023/01/19 10:52:54;;;;;;;;;;;;;;;6.79;66.13;95498.31;5026330;28;21438;-48
2023/01/19 10:55:29;;;;;;;13.00;9.35;;;;;;;6.58;64.77;95501.16;5027931;28;20421;-49
2023/01/19 10:57:58;;;;;;;15.68;9.75;;;;;;;6.55;63.26;95499.63;5025758;28;20117;-50
2023/01/19 11:00:33;;;;;;;12.93;7.72;;;;;;;6.09;69.78;95500.44;5027672;28;20073;-51
2023/01/19 11:03:01;;;;;;;13.93;9.25;;;;;;;7.03;66.31;95482.03;5025470;28;20077;-47
2023/01/19 11:05:32;;;;;;;16.85;9.77;;;;;;;6.76;65.69;95493.34;5025599;28;20096;-52
2023/01/19 11:08:00;;;;;;;14.43;9.50;;;;;;;6.32;66.03;95486.06;5018266;28;20065;-49
2023/01/19 11:10:29;;;;;;;11.75;8.02;;;;;;;6.72;64.48;95482.34;5028744;28;20491;-51
2023/01/19 11:13:06;;;;;;;12.70;8.30;;;;;;;6.96;64.52;95483.59;5023405;28;20076;-51
2023/01/19 11:15:41;;;;;;;14.90;9.18;;;;;;;7.31;59.57;95483.66;5020969;28;20076;-52
2023/01/19 11:18:22;;;;;;;15.95;10.05;;;;;;;7.06;61.41;95477.34;5027037;28;20065;-47
2023/01/19 11:20:52;;;;;;;13.73;8.85;;;;;;;7.34;62.70;95475.50;5028200;28;20513;-48
2023/01/19 11:23:26;;;;;;;13.52;9.32;;;;;;;6.64;66.82;95477.81;5035075;28;20080;-46
2023/01/19 11:25:56;;;;;;;9.32;6.95;;;;;;;6.85;65.06;95474.97;5025917;28;20091;-47
2023/01/19 11:28:26;;;;;;;;;;;;;;;6.89;61.92;95473.69;5026721;28;20068;-51
2023/01/19 11:30:58;;;;;;;10.85;6.40;;;;;;;6.49;61.67;95481.03;5027839;28;20511;-48
2023/01/19 11:33:34;;;;;;;11.20;7.90;;;;;;;5.96;65.12;95477.19;5026970;28;20463;-49
2023/01/19 11:36:07;;;;;;;10.90;7.80;;;;;;;6.07;69.89;95477.03;5026271;28;20073;-49
2023/01/19 11:38:42;;;;;;;16.23;9.57;;;;;;;6.34;64.99;95473.66;5035866;28;20069;-49
2023/01/19 11:41:16;;;;;;;9.70;6.72;;;;;;;6.33;65.79;95466.78;5031297;28;20085;-50
2023/01/19 11:43:45;;;;;;;12.32;7.78;;;;;;;6.64;62.97;95459.50;5033213;28;20087;-46
2023/01/19 11:46:18;;;;;;;14.65;8.70;;;;;;;6.48;71.32;95463.69;5031995;28;20088;-52